Time;durP1;ratioP1;P1;durP2;ratioP2;P2;SDS_P1;SDS_P2;PMS_P1;PMS_P2;Temp;Humidity;BMP_temperature;BMP_pressure;BME280_temperature;BME280_humidity;BME280_pressure;Samples;Min_cycle;Max_cycle;Signal;HPM_P1;HPM_P2
2024/04/09 00:04:37;;;;;;;0.00;0.00;;;21.90;99.90;;;;;;11307305;26;20114;-59
2024/04/09 00:09:45;;;;;;;0.45;0.40;;;22.00;99.90;;;;;;11316448;26;20097;-58
2024/04/09 00:14:50;;;;;;;0.28;0.28;;;21.80;99.90;;;;;;11320866;26;20020;-58
2024/04/09 00:20:09;;;;;;;0.77;0.65;;;21.10;99.90;;;;;;11327250;26;20010;-56
2024/04/09 00:25:18;;;;;;;0.00;0.00;;;19.30;99.90;;;;;;11329014;26;20345;-56
2024/04/09 00:30:25;;;;;;;0.00;0.00;;;17.90;99.90;;;;;;11330532;26;20019;-57
2024/04/09 00:35:34;;;;;;;0.00;0.00;;;17.10;99.90;;;;;;11331850;26;20006;-58
2024/04/09 00:40:43;;;;;;;0.10;0.10;;;;;;;;;;11331312;26;20006;-58
2024/04/09 00:45:55;;;;;;;0.00;0.00;;;;;;;;;;11332536;26;20014;-57
2024/04/09 00:51:03;;;;;;;0.08;0.08;;;;;;;;;;11328366;26;20205;-59
2024/04/09 00:56:11;;;;;;;0.10;0.10;;;;;;;;;;11325828;25;20080;-59
2024/04/09 01:01:16;;;;;;;0.10;0.10;;;;;;;;;;11327517;26;20032;-58
2024/04/09 01:06:23;;;;;;;0.10;0.10;;;;;;;;;;11335106;26;20006;-58
2024/04/09 01:11:27;;;;;;;0.10;0.10;;;;;;;;;;11327952;26;20045;-58
2024/04/09 01:16:33;;;;;;;0.30;0.30;;;;;;;;;;11327209;26;20087;-56
2024/04/09 01:21:40;;;;;;;0.10;0.10;;;;;;;;;;11323662;26;20006;-57
2024/04/09 01:26:52;;;;;;;0.10;0.10;;;;;;;;;;11330302;26;20774;-57
2024/04/09 01:31:57;;;;;;;0.10;0.10;;;;;;;;;;11330464;26;20018;-58
2024/04/09 01:37:01;;;;;;;0.10;0.10;;;;;;;;;;11324802;26;20013;-58
2024/04/09 01:42:15;;;;;;;0.10;0.10;;;;;;;;;;11327535;26;20257;-56
2024/04/09 01:47:22;;;;;;;1.08;1.08;;;;;;;;;;11332518;26;20097;-57
2024/04/09 01:52:26;;;;;;;0.10;0.10;;;;;;;;;;11331747;26;20027;-57
2024/04/09 01:57:40;;;;;;;0.20;0.20;;;;;;;;;;11321690;26;20079;-59
2024/04/09 02:02:48;;;;;;;0.10;0.10;;;;;;;;;;11334214;26;20029;-57
2024/04/09 02:07:57;;;;;;;0.10;0.10;;;;;;;;;;11344386;26;20287;-58
2024/04/09 02:13:04;;;;;;;0.10;0.10;;;;;;;;;;11335193;26;20153;-58
2024/04/09 02:18:10;;;;;;;16.90;1.48;;;;;;;;;;11340835;26;20623;-58
2024/04/09 02:23:15;;;;;;;0.20;0.20;;;;;;;;;;11332452;26;20111;-58
2024/04/09 02:28:25;;;;;;;2.60;2.40;;;;;;;;;;11329629;26;20432;-56
2024/04/09 02:33:29;;;;;;;0.10;0.10;;;;;;;;;;11323479;26;20028;-56
2024/04/09 02:38:45;;;;;;;0.20;0.20;;;;;;;;;;11324624;26;20026;-53
2024/04/09 02:43:56;;;;;;;0.10;0.10;;;;;;;;;;11332901;26;20053;-56
2024/04/09 02:49:04;;;;;;;0.32;0.32;;;;;;;;;;11333764;26;22791;-56
2024/04/09 02:54:08;;;;;;;0.10;0.10;;;;;;;;;;11335997;26;20087;-60
2024/04/09 02:59:17;;;;;;;0.20;0.20;;;;;;;;;;11336908;26;21076;-56
2024/04/09 03:04:21;;;;;;;0.13;0.13;;;;;;;;;;11341706;26;20010;-58
2024/04/09 03:09:27;;;;;;;0.10;0.10;;;;;;;;;;11335157;26;20385;-59
2024/04/09 03:14:35;;;;;;;5.38;0.73;;;;;;;;;;11334340;26;20024;-58
2024/04/09 03:19:39;;;;;;;0.10;0.10;;;;;;;;;;11329627;26;20016;-57
2024/04/09 03:24:50;;;;;;;0.10;0.10;;;;;;;;;;11332848;26;20014;-58
2024/04/09 03:30:01;;;;;;;0.10;0.10;;;;;;;;;;11327504;26;20005;-57
2024/04/09 03:35:12;;;;;;;0.63;0.63;;;;;;;;;;11326119;26;20035;-58
2024/04/09 03:40:16;;;;;;;0.10;0.10;;;;;;;;;;11325918;26;20464;-58
2024/04/09 03:45:23;;;;;;;10.38;1.45;;;;;;;;;;11325244;26;20097;-59
2024/04/09 03:50:28;;;;;;;23.20;2.75;;;;;;;;;;11147457;26;20843;-57
2024/04/09 03:55:33;;;;;;;11.88;1.38;;;;;;;;;;11144636;26;23511;-57
2024/04/09 04:00:44;;;;;;;15.57;2.63;;;;;;;;;;11148662;26;20554;-59
2024/04/09 04:05:53;;;;;;;22.30;3.45;;;;;;;;;;11148779;26;20035;-57
2024/04/09 04:10:57;;;;;;;21.80;2.88;;;;;;;;;;11148283;26;20073;-59
2024/04/09 04:16:12;;;;;;;18.08;2.63;;;;;;;;;;11144128;26;20029;-57
2024/04/09 04:21:18;;;;;;;11.35;2.15;;;;;;;;;;11144388;26;20022;-59
2024/04/09 04:26:25;;;;;;;13.52;1.80;;;;;;;;;;11139666;26;20035;-59
2024/04/09 04:31:38;;;;;;;7.35;1.92;;;;;;;;;;11148476;26;20022;-58
2024/04/09 04:36:42;;;;;;;16.45;2.50;;;;;;;;;;11141977;26;20015;-59
2024/04/09 04:41:47;;;;;;;10.50;1.70;;;;;;;;;;11140695;26;20012;-59
2024/04/09 04:46:57;;;;;;;14.00;3.17;;;;;;;;;;11198192;26;20056;-57
2024/04/09 04:52:04;;;;;;;11.45;1.15;;;;;;;;;;11321527;25;20010;-57
2024/04/09 04:57:08;;;;;;;8.10;1.95;;;;;;;;;;11325308;26;20014;-59
2024/04/09 05:02:22;;;;;;;5.15;1.13;;;;;;;;;;11315309;26;20039;-59
2024/04/09 05:07:27;;;;;;;12.02;1.83;;;;;;;;;;11330026;26;20038;-57
2024/04/09 05:12:32;;;;;;;11.35;2.10;;;;;;;;;;11321210;26;20378;-58
2024/04/09 05:17:42;;;;;;;12.90;2.08;;;;;;;;;;11315469;26;20020;-58
2024/04/09 05:22:47;;;;;;;4.88;1.17;;;;;;;;;;11316751;26;20042;-60
2024/04/09 05:27:51;;;;;;;20.02;2.58;;;;;;;;;;11317980;25;20018;-59
2024/04/09 05:32:58;;;;;;;10.65;1.48;;;;;;;;;;11316758;26;20018;-58
2024/04/09 05:38:10;;;;;;;5.55;1.23;;;;;;;;;;11314105;26;20006;-59
2024/04/09 05:43:18;;;;;;;3.25;1.25;;;;;;;;;;11323976;26;20011;-58
2024/04/09 05:48:29;;;;;;;7.32;2.17;;;;;;;;;;11326101;26;20005;-59
2024/04/09 05:53:33;;;;;;;10.98;1.58;;;;;;;;;;11330916;26;20018;-59
2024/04/09 05:58:38;;;;;;;10.82;2.20;;;;;;;;;;11323249;26;20029;-59
2024/04/09 06:03:45;;;;;;;11.02;1.85;;;;;;;;;;11324603;26;20024;-58
2024/04/09 06:08:51;;;;;;;5.35;1.15;;;;;;;;;;11333900;26;20009;-60
2024/04/09 06:13:56;;;;;;;6.28;2.22;;;;;;;;;;11318302;26;20574;-59
2024/04/09 06:19:04;;;;;;;8.63;1.75;;;;;;;;;;11328940;25;20117;-59
2024/04/09 06:24:09;;;;;;;3.75;0.65;;;;;;;;;;11317237;26;20184;-58
2024/04/09 06:29:14;;;;;;;9.90;1.88;;;;;;;;;;11320899;26;20017;-60
2024/04/09 06:34:24;;;;;;;4.00;1.02;;;;;;;;;;11314098;26;20017;-59
2024/04/09 06:39:29;;;;;;;6.78;0.95;;;;;;;;;;11316337;26;20028;-59
2024/04/09 06:44:34;;;;;;;7.47;0.93;;;;;;;;;;11313293;26;20077;-58
2024/04/09 06:49:46;;;;;;;6.22;1.10;;;;;;;;;;11309328;26;20022;-60
2024/04/09 06:54:50;;;;;;;2.07;0.73;;;;;;;;;;11304283;26;20012;-57
2024/04/09 06:59:55;;;;;;;5.00;1.10;;;;;;;;;;11311954;26;20020;-60
2024/04/09 07:05:05;;;;;;;8.32;0.80;;;;;;;;;;11310339;26;20033;-59
2024/04/09 07:10:15;;;;;;;6.97;1.17;;;;;;;;;;11312692;26;20018;-61
2024/04/09 07:15:25;;;;;;;4.15;0.90;;;;;;;;;;11320424;26;20116;-63
2024/04/09 07:20:34;;;;;;;5.50;1.00;;;;;;;;;;11317643;26;20017;-56
2024/04/09 07:25:41;;;;;;;4.32;1.23;;;;;;;;;;11318044;26;20425;-60
2024/04/09 07:30:46;;;;;;;7.63;1.05;;;;;;;;;;11317047;26;20808;-58
2024/04/09 07:36:03;;;;;;;4.07;0.65;;;;;;;;;;11311943;26;20442;-57
2024/04/09 07:41:08;;;;;;;3.45;0.75;;;;;;;;;;11307116;26;20013;-59
2024/04/09 07:46:13;;;;;;;5.53;0.70;;;;;;;;;;11312315;26;20135;-57
2024/04/09 07:51:22;;;;;;;6.22;0.60;;;;;;;;;;11317105;26;20006;-58
2024/04/09 07:56:27;;;;;;;4.80;0.95;;;;;;;;;;11308202;26;20006;-59
2024/04/09 08:01:31;;;;;;;1.55;0.70;;;;;;;;;;11306970;26;20118;-57
2024/04/09 08:06:40;;;;;;;1.67;0.50;;;;;;;;;;11306906;25;20061;-58
2024/04/09 08:11:45;;;;;;;1.77;0.60;;;;;;;;;;11314659;26;20754;-59
2024/04/09 08:16:49;;;;;;;6.15;1.25;;;;;;;;;;11314993;26;21712;-58
2024/04/09 08:21:57;;;;;;;1.35;0.60;;;;;;;;;;11317271;26;20471;-60
2024/04/09 08:27:01;;;;;;;4.18;0.85;;;;;;;;;;11324480;26;20006;-58
2024/04/09 08:32:05;;;;;;;5.30;0.80;;;;;;;;;;11337037;26;20465;-55
2024/04/09 08:37:21;;;;;;;5.10;0.90;;;;;;;;;;11332369;26;20426;-59
2024/04/09 08:42:26;;;;;;;8.20;1.10;;;;;;;;;;11337051;26;20065;-59
2024/04/09 08:47:32;;;;;;;5.07;1.10;;;;;;;;;;11324740;26;20010;-59
2024/04/09 08:52:39;;;;;;;2.60;0.95;;;;;;;;;;11327932;26;20022;-59
2024/04/09 08:57:43;;;;;;;5.90;1.70;;;;;;;;;;11319362;26;20018;-58
2024/04/09 09:02:52;;;;;;;3.10;0.65;;;;;;;;;;11307329;26;20412;-57
2024/04/09 09:08:08;;;;;;;10.25;0.80;;;;;;;;;;11311827;26;20010;-59
2024/04/09 09:13:12;;;;;;;2.90;0.60;;;;;;;;;;11314080;26;20078;-59
2024/04/09 09:18:25;;;;;;;8.23;1.10;;;;;;;;;;11318566;26;20836;-60
2024/04/09 09:23:32;;;;;;;5.30;0.70;;;;;;;;;;11323505;26;20005;-58
2024/04/09 09:28:36;;;;;;;3.83;0.57;;;;;;;;;;11328962;26;20485;-60
2024/04/09 09:33:42;;;;;;;6.60;0.77;;;;;;;;;;11314776;26;20768;-60
2024/04/09 09:38:51;;;;;;;6.22;1.02;;;;;;;;;;11312639;26;20025;-59
2024/04/09 09:43:58;;;;;;;4.60;0.80;;;;;;;;;;11316788;25;20686;-58
2024/04/09 09:49:05;;;;;;;7.35;1.38;;;;;;;;;;11315867;26;20021;-58
2024/04/09 09:54:13;;;;;;;2.92;0.93;;;;;;;;;;11307320;26;20086;-64
2024/04/09 09:59:17;;;;;;;3.58;0.60;;;;;;;;;;11318243;26;20853;-59
2024/04/09 10:04:22;;;;;;;4.15;0.88;;;;;;;;;;11319108;26;20025;-59
2024/04/09 10:09:42;;;;;;;4.13;1.05;;;;;;;;;;11318394;26;20010;-59
2024/04/09 10:14:55;;;;;;;4.38;0.88;;;;;;;;;;11311541;26;22570;-56
2024/04/09 10:20:01;;;;;;;6.43;1.00;;;;;;;;;;11307819;26;20020;-57
2024/04/09 10:25:06;;;;;;;5.95;1.10;;;;;;;;;;11310799;26;20975;-59
2024/04/09 10:30:21;;;;;;;6.15;0.63;;;;;;;;;;11308400;26;20010;-55
2024/04/09 10:35:25;;;;;;;4.57;1.02;;;;;;;;;;11304745;26;21042;-57
2024/04/09 10:40:33;;;;;;;6.15;1.20;;;;;;;;;;11312474;26;20006;-59
2024/04/09 10:45:41;;;;;;;4.45;0.82;;;;;;;;;;11313758;26;20021;-56
2024/04/09 10:50:46;;;;;;;1.88;0.65;;;;;;;;;;11311999;25;20025;-59
2024/04/09 10:55:53;;;;;;;5.75;0.63;;;;;;;;;;11310500;26;20005;-58
2024/04/09 11:01:03;;;;;;;4.05;0.75;;;;;;;;;;11317371;26;20020;-59
2024/04/09 11:06:07;;;;;;;9.70;1.50;;;;;;;;;;11319377;26;20676;-58
2024/04/09 11:11:19;;;;;;;2.40;0.73;;;;;;;;;;11324972;26;20002;-56
2024/04/09 11:16:26;;;;;;;4.25;0.75;;;;;;;;;;11319239;26;20050;-58
2024/04/09 11:21:30;;;;;;;2.20;0.60;;;;;;;;;;11319139;26;20005;-57
2024/04/09 11:26:35;;;;;;;3.53;0.90;;;;;;;;;;11321635;26;20025;-59
2024/04/09 11:31:42;;;;;;;5.32;0.93;;;;;;;;;;11315111;26;20006;-58
2024/04/09 11:36:49;;;;;;;9.32;2.30;;;;;;;;;;11310644;26;20128;-59
2024/04/09 11:41:56;;;;;;;5.13;1.48;;;;;;;;;;11311073;26;20006;-58
2024/04/09 11:47:05;;;;;;;3.88;0.68;;;;;;;;;;11309243;26;20930;-59
2024/04/09 11:52:11;;;;;;;12.95;2.55;;;;;;;;;;11308341;26;20856;-59
2024/04/09 11:57:15;;;;;;;1.15;0.68;;;;;;;;;;11307422;26;20057;-57
2024/04/09 12:02:23;;;;;;;4.65;0.88;;;;;;;;;;11307119;26;20001;-59
2024/04/09 12:07:29;;;;;;;5.35;0.77;;;;;;;;;;11318037;26;20013;-57
2024/04/09 12:12:38;;;;;;;6.00;1.27;;;;;;;;;;11316557;26;20901;-58
2024/04/09 12:17:48;;;;;;;3.97;1.10;;;;;;;;;;11325882;26;20009;-60
2024/04/09 12:22:53;;;;;;;7.13;1.25;;;;;;;;;;11328898;26;20805;-58
2024/04/09 12:27:57;;;;;;;6.00;1.15;;;;;;;;;;11326155;26;20010;-56
2024/04/09 12:33:05;;;;;;;5.03;1.23;;;;;;;;;;11322753;26;20084;-57
2024/04/09 12:38:10;;;;;;;4.43;1.00;;;;;;;;;;11329410;26;20052;-54
2024/04/09 12:43:14;;;;;;;9.27;1.70;;;;;;;;;;11330486;26;20845;-56
2024/04/09 12:48:24;;;;;;;2.35;0.93;;;;;;;;;;11334815;26;20020;-57
2024/04/09 12:53:32;;;;;;;4.50;1.10;;;;;;;;;;11329019;26;20842;-58
2024/04/09 12:58:37;;;;;;;6.95;1.20;;;;;;;;;;11325038;26;20099;-60
2024/04/09 13:03:47;;;;;;;8.65;1.48;;;;;;;;;;11312342;26;20082;-59
2024/04/09 13:08:52;;;;;;;14.43;2.63;;;;;;;;;;11313421;26;20508;-57
2024/04/09 13:13:57;;;;;;;8.63;1.70;;;;;;;;;;11316886;26;20025;-56
2024/04/09 13:19:04;;;;;;;10.93;1.80;;;;;;;;;;11310086;26;21120;-58
2024/04/09 13:24:08;;;;;;;13.70;2.45;;;;;;;;;;11310322;26;20077;-59
2024/04/09 13:29:12;;;;;;;14.00;2.28;;;;;;;;;;11315352;26;20016;-59
2024/04/09 13:34:20;;;;;;;7.10;1.88;;;;;;;;;;11313355;26;20032;-58
2024/04/09 13:39:25;;;;;;;12.02;1.95;;;;;;;;;;11306397;26;20014;-59
2024/04/09 13:44:40;;;;;;;18.42;3.10;;;;;;;;;;11315211;26;20016;-58
2024/04/09 13:49:47;;;;;;;10.30;2.45;;;;;;;;;;11321090;26;20006;-55
2024/04/09 13:54:55;;;;;;;15.35;3.55;;;;;;;;;;11324757;26;21003;-57
2024/04/09 14:00:00;;;;;;;24.33;4.00;;;;;;;;;;11317496;26;20836;-59
2024/04/09 14:05:10;;;;;;;14.70;2.13;;;;;;;;;;11322563;26;20008;-56
2024/04/09 14:10:15;;;;;;;5.60;1.65;;;;;;;;;;11329298;26;20005;-56
2024/04/09 14:15:20;;;;;;;8.77;1.30;;;;;;;;;;11325239;26;20006;-59
2024/04/09 14:20:28;;;;;;;2.70;0.93;;;;;;;;;;11305351;26;20076;-61
2024/04/09 14:25:33;;;;;;;9.13;1.30;;;;;;;;;;11311226;26;20065;-56
2024/04/09 14:30:39;;;;;;;6.88;1.33;;;;;;;;;;11312624;26;20029;-61
2024/04/09 14:35:52;;;;;;;8.48;1.48;;;;;;;;;;11319178;26;20229;-60
2024/04/09 14:40:56;;;;;;;3.78;1.20;;;;;;;;;;11322756;25;20028;-60
2024/04/09 14:46:00;;;;;;;6.07;1.25;;;;;;;;;;11312271;26;20390;-59
2024/04/09 14:51:08;;;;;;;6.80;1.60;;;;;;;;;;11313661;26;20001;-58
2024/04/09 14:56:14;;;;;;;9.18;1.35;;;;;;;;;;11311597;26;20556;-58
2024/04/09 15:01:19;;;;;;;6.68;1.35;;;;;;;;;;11308998;26;20016;-57
2024/04/09 15:06:29;;;;;;;8.45;1.38;;;;;;;;;;11309889;25;20057;-58
2024/04/09 15:11:38;;;;;;;10.07;2.15;;;;;;;;;;11313136;26;20084;-58
2024/04/09 15:16:45;;;;;;;0.20;0.20;;;;;;;;;;11312989;26;20093;-57
2024/04/09 15:21:52;;;;;;;0.20;0.20;;;;;;;;;;11312698;26;20017;-56
2024/04/09 15:26:56;;;;;;;0.63;0.63;;;;;;;;;;11309859;26;23326;-57
2024/04/09 15:32:01;;;;;;;0.30;0.30;;;;;;;;;;11308938;26;20019;-53
2024/04/09 15:37:08;;;;;;;0.17;0.17;;;;;;;;;;11306475;26;20871;-58
2024/04/09 15:42:15;;;;;;;0.10;0.10;;;;;;;;;;11304714;26;22522;-56
2024/04/09 15:47:23;;;;;;;0.10;0.10;;;;;;;;;;11310830;26;20028;-60
2024/04/09 15:52:32;;;;;;;0.15;0.15;;;;;;;;;;11309273;26;20753;-55
2024/04/09 15:57:44;;;;;;;0.10;0.10;;;;;;;;;;11308075;26;20002;-60
2024/04/09 16:02:52;;;;;;;0.20;0.20;;;;;;;;;;11302964;26;20688;-56
2024/04/09 16:08:00;;;;;;;0.10;0.10;;;;;;;;;;11305456;26;20018;-58
2024/04/09 16:13:05;;;;;;;9.10;1.60;;;;;;;;;;11304798;26;20066;-57
2024/04/09 16:18:10;;;;;;;10.07;1.77;;;;;;;;;;11303365;26;20003;-62
2024/04/09 16:23:19;;;;;;;9.75;2.28;;;;;;;;;;11310219;26;20032;-57
2024/04/09 16:28:24;;;;;;;21.25;3.33;;;;;;;;;;11309957;26;20013;-58
2024/04/09 16:33:37;;;;;;;7.97;2.17;;;;;;;;;;11318030;26;20038;-59
2024/04/09 16:38:45;;;;;;;6.82;1.83;;;;;;;;;;11310995;25;20042;-57
2024/04/09 16:43:55;;;;;;;16.25;3.45;;;;;;;;;;11314993;26;20031;-58
2024/04/09 16:49:06;;;;;;;14.50;2.90;;;;;;;;;;11311701;26;20010;-56
2024/04/09 16:54:14;;;;;;;15.02;3.20;;;;;;;;;;11322254;26;20058;-58
2024/04/09 16:59:22;;;;;;;7.47;1.85;;;;;;;;;;11317688;26;20013;-58
2024/04/09 17:04:26;;;;;;;7.20;1.35;;;;;;;;;;11310447;26;20006;-58
2024/04/09 17:09:34;;;;;;;17.02;1.67;;;;;;;;;;11299680;26;20018;-58
2024/04/09 17:14:38;;;;;;;17.02;2.30;;;;;;;;;;11308323;26;20162;-60
2024/04/09 17:19:46;;;;;;;13.68;2.70;;;;;;;;;;11305162;26;20078;-58
2024/04/09 17:24:53;;;;;;;23.50;2.55;;;;;;;;;;11313325;26;20046;-51
2024/04/09 17:29:59;;;;;;;6.95;1.98;;;;;;;;;;11313439;26;23661;-52
2024/04/09 17:35:03;;;;;;;18.80;2.25;;;;;;;;;;11311434;26;20108;-54
2024/04/09 17:40:11;;;;;;;20.85;2.75;;;;;;;;;;11304057;26;20377;-51
2024/04/09 17:45:16;;;;;;;12.63;2.08;;;;;;;;;;11312578;26;20686;-55
2024/04/09 17:50:20;;;;;;;11.88;3.55;;;;;;;;;;11309263;26;20023;-55
2024/04/09 17:55:27;;;;;;;13.80;3.20;;;;;;;;;;11309196;26;20005;-54
2024/04/09 18:00:32;;;;;;;12.07;2.67;;;;;;;;;;11317660;26;20012;-54
2024/04/09 18:05:39;;;;;;;14.98;4.00;;;;;;;;;;11321204;25;20123;-56
2024/04/09 18:10:48;;;;;;;8.52;3.30;;;;;;;;;;11315225;26;20083;-58
2024/04/09 18:15:54;;;;;;;20.83;4.07;;;;;;;;;;11310394;26;20020;-57
2024/04/09 18:21:00;;;;;;;15.10;3.25;;;;;;;;;;11307813;26;19998;-56
2024/04/09 18:26:08;;;;;;;20.88;3.83;;;;;;;;;;11312031;26;20708;-57
2024/04/09 18:31:14;;;;;;;11.93;3.25;;;;;;;;;;11316177;26;20078;-54
2024/04/09 18:36:21;;;;;;;9.27;2.72;;;;;;;;;;11317621;26;20030;-57
2024/04/09 18:41:40;;;;;;;16.08;3.33;;;;;;;;;;11305414;26;20006;-57
2024/04/09 18:46:45;;;;;;;15.80;4.32;;;;;;;;;;11313940;26;20017;-55
2024/04/09 18:51:52;;;;;;;17.90;3.58;;;;;;;;;;11308000;26;20155;-56
2024/04/09 18:56:59;;;;;;;15.82;3.90;;;;;;;;;;11312076;26;20013;-56
2024/04/09 19:02:06;;;;;;;17.42;3.65;;;;;;;;;;11313450;26;20058;-56
2024/04/09 19:07:11;;;;;;;9.90;3.20;;;;;;;;;;11317151;26;20020;-58
2024/04/09 19:12:23;;;;;;;16.45;3.17;;;;;;;;;;11315181;26;20018;-58
2024/04/09 19:17:27;;;;;;;16.33;3.20;;;;;;;;;;11317288;26;20020;-58
2024/04/09 19:22:32;;;;;;;10.15;3.65;;;;;;;;;;11318662;26;20557;-55
2024/04/09 19:27:42;;;;;;;9.20;2.80;;;;;;;;;;11309644;26;20006;-57
2024/04/09 19:32:50;;;;;;;13.50;3.10;;;;;;;;;;11306494;26;20873;-57
2024/04/09 19:37:55;;;;;;;8.68;2.92;;;;;;;;;;11308523;26;20017;-55
2024/04/09 19:43:04;;;;;;;19.27;3.03;;;;;;;;;;11304651;26;21601;-54
2024/04/09 19:48:11;;;;;;;15.88;2.75;;;;;;;;;;11303579;26;20025;-55
2024/04/09 19:53:15;;;;;;;11.30;2.72;;;;;;;;;;11310262;26;20491;-55
2024/04/09 19:58:27;;;;;;;18.38;4.95;;;;;;;;;;11305858;26;20017;-54
2024/04/09 20:03:32;;;;;;;21.48;4.25;;;;;;;;;;11310202;26;20006;-53
2024/04/09 20:08:37;;;;;;;17.58;3.08;;;;;;;;;;11307558;26;20024;-56
2024/04/09 20:13:47;;;;;;;10.52;2.22;;;;;;;;;;11308447;26;20090;-57
2024/04/09 20:18:52;;;;;;;14.13;2.75;;;;;;;;;;11312552;26;20026;-53
2024/04/09 20:23:56;;;;;;;12.98;4.28;;;;;;;;;;11314063;26;20002;-54
2024/04/09 20:29:08;;;;;;;13.48;2.83;;;;;;;;;;11321546;26;20009;-55
2024/04/09 20:34:14;;;;;;;14.00;2.75;;;;;;;;;;11321884;26;20017;-54
2024/04/09 20:39:19;;;;;;;10.48;2.53;;;;;;;;;;11321622;26;20018;-55
2024/04/09 20:44:29;;;;;;;11.93;2.95;;;;;;;;;;11328417;26;20151;-57
2024/04/09 20:49:37;;;;;;;10.68;2.15;;;;;;;;;;11325628;26;20061;-53
2024/04/09 20:54:44;;;;;;;17.02;3.75;;;;;;;;;;11333373;26;20949;-52
2024/04/09 20:59:53;;;;;;;13.02;3.90;;;;;;;;;;11317653;26;20017;-56
2024/04/09 21:04:57;;;;;;;17.25;4.40;;;;;;;;;;11324490;26;20067;-57
2024/04/09 21:10:02;;;;;;;19.10;4.22;;;;;;;;;;11322912;26;20085;-52
2024/04/09 21:15:10;;;;;;;17.00;3.15;;;;;;;;;;11322746;26;20013;-52
2024/04/09 21:20:17;;;;;;;22.95;2.83;;;;;;;;;;11323613;26;20024;-57
2024/04/09 21:25:21;;;;;;;17.88;3.85;;;;;;;;;;11327344;26;20021;-58
2024/04/09 21:30:30;;;;;;;11.20;3.30;;;;;;;;;;11322452;25;20020;-55
2024/04/09 21:35:35;;;;;;;21.20;4.28;;;;;;;;;;11319642;26;20024;-57
2024/04/09 21:40:41;;;;;;;12.90;2.88;;;;;;;;;;11326701;26;20295;-56
2024/04/09 21:45:52;;;;;;;10.00;3.28;;;;;;;;;;11324803;26;20025;-55
2024/04/09 21:50:59;;;;;;;13.77;3.08;;;;;;;;;;11325844;26;20669;-55
2024/04/09 21:56:11;;;;;;;12.57;3.40;;;;;;;;;;11307130;26;20021;-58
2024/04/09 22:01:19;;;;;;;13.27;3.13;;;;;;;;;;11322808;26;20006;-56
2024/04/09 22:06:25;;;;;;;18.63;3.05;;;;;;;;;;11331296;26;20028;-56
2024/04/09 22:11:30;;;;;;;19.05;4.93;;;;;;;;;;11334998;26;20021;-56
2024/04/09 22:16:43;;;;;;;15.88;2.85;;;;;;;;;;11317977;26;20002;-58
2024/04/09 22:21:47;;;;;;;;;;;;;;;;;;11317351;26;21079;-57
2024/04/09 22:26:51;;;;;;;19.73;4.22;;;;;;;;;;11315838;26;20020;-55
2024/04/09 22:31:58;;;;;;;14.88;3.08;;;;;;;;;;11318957;26;20246;-57
2024/04/09 22:37:02;;;;;;;8.38;3.63;;;;;;;;;;11323815;26;20021;-56
2024/04/09 22:42:07;;;;;;;15.52;3.40;;;;;;;;;;11321769;26;20476;-57
2024/04/09 22:47:17;;;;;;;14.27;3.35;;;;;;;;;;11330312;26;20018;-54
2024/04/09 22:52:28;;;;;;;19.88;3.58;;;;;;;;;;11323515;26;20018;-55
2024/04/09 22:57:35;;;;;;;16.45;3.60;;;;;;;;;;11321247;26;20370;-56
2024/04/09 23:02:42;;;;;;;20.52;4.47;;;;;;;;;;11324529;26;20572;-54
2024/04/09 23:07:48;;;;;;;12.68;2.70;;;;;;;;;;11327060;26;20094;-54
2024/04/09 23:12:53;;;;;;;16.48;2.80;;;;;;;;;;11325002;26;20048;-57
2024/04/09 23:18:00;;;;;;;5.88;2.03;;;;;;;;;;11324582;26;20025;-54
2024/04/09 23:23:04;;;;;;;21.70;4.07;;;;;;;;;;11328769;26;20070;-56
2024/04/09 23:28:11;;;;;;;16.55;3.25;;;10.80;99.90;;;;;;11334062;26;20338;-55
2024/04/09 23:33:20;;;;;;;19.42;4.03;;;10.60;99.90;;;;;;11322519;26;20465;-54
2024/04/09 23:38:26;;;;;;;15.85;3.83;;;10.70;99.90;;;;;;11310764;26;20301;-56
2024/04/09 23:43:30;;;;;;;19.48;4.40;;;10.80;99.90;;;;;;11322134;26;20018;-55
2024/04/09 23:48:39;;;;;;;14.10;2.45;;;10.80;99.90;;;;;;11316617;26;20041;-55
2024/04/09 23:53:50;;;;;;;10.77;3.00;;;10.70;99.90;;;;;;11324538;26;20022;-55
2024/04/09 23:58:54;;;;;;;8.48;2.47;;;10.70;99.90;;;;;;11315572;26;20006;-56
